sensor_id;sensor_type;location;lat;lon;timestamp;P1;durP1;ratioP1;P2;durP2;ratioP2
1719;SDS011;857;52.872;9.692;2023-07-13T00:01:52;4.77;;;4.37;;
1719;SDS011;857;52.872;9.692;2023-07-13T00:04:22;5.40;;;4.40;;
1719;SDS011;857;52.872;9.692;2023-07-13T00:06:50;5.23;;;4.27;;
1719;SDS011;857;52.872;9.692;2023-07-13T00:09:20;5.43;;;4.03;;
1719;SDS011;857;52.872;9.692;2023-07-13T00:11:50;4.37;;;3.97;;
1719;SDS011;857;52.872;9.692;2023-07-13T00:14:18;4.70;;;4.30;;
1719;SDS011;857;52.872;9.692;2023-07-13T00:16:46;4.37;;;3.97;;
1719;SDS011;857;52.872;9.692;2023-07-13T00:19:14;4.10;;;3.73;;
1719;SDS011;857;52.872;9.692;2023-07-13T00:21:42;4.57;;;3.93;;
1719;SDS011;857;52.872;9.692;2023-07-13T00:24:10;4.60;;;4.03;;
1719;SDS011;857;52.872;9.692;2023-07-13T00:26:40;4.43;;;4.03;;
1719;SDS011;857;52.872;9.692;2023-07-13T00:29:11;3.93;;;3.63;;
1719;SDS011;857;52.872;9.692;2023-07-13T00:31:39;4.30;;;3.90;;
1719;SDS011;857;52.872;9.692;2023-07-13T00:34:07;4.20;;;3.80;;
1719;SDS011;857;52.872;9.692;2023-07-13T00:36:34;4.10;;;3.67;;
1719;SDS011;857;52.872;9.692;2023-07-13T00:39:02;4.40;;;4.00;;
1719;SDS011;857;52.872;9.692;2023-07-13T00:41:30;4.30;;;4.00;;
1719;SDS011;857;52.872;9.692;2023-07-13T00:43:59;4.37;;;3.97;;
1719;SDS011;857;52.872;9.692;2023-07-13T00:46:29;5.63;;;4.17;;
1719;SDS011;857;52.872;9.692;2023-07-13T00:48:57;4.03;;;3.70;;
1719;SDS011;857;52.872;9.692;2023-07-13T00:51:30;4.90;;;3.80;;
1719;SDS011;857;52.872;9.692;2023-07-13T00:54:02;4.50;;;3.90;;
1719;SDS011;857;52.872;9.692;2023-07-13T00:56:31;4.07;;;3.73;;
1719;SDS011;857;52.872;9.692;2023-07-13T00:59:01;6.13;;;3.63;;
1719;SDS011;857;52.872;9.692;2023-07-13T01:01:30;3.77;;;3.47;;
1719;SDS011;857;52.872;9.692;2023-07-13T01:03:58;4.00;;;3.70;;
1719;SDS011;857;52.872;9.692;2023-07-13T01:06:26;4.77;;;4.20;;
1719;SDS011;857;52.872;9.692;2023-07-13T01:08:54;5.13;;;3.10;;
1719;SDS011;857;52.872;9.692;2023-07-13T01:11:22;4.87;;;3.77;;
1719;SDS011;857;52.872;9.692;2023-07-13T01:13:50;4.30;;;3.80;;
1719;SDS011;857;52.872;9.692;2023-07-13T01:16:22;4.33;;;3.60;;
1719;SDS011;857;52.872;9.692;2023-07-13T01:18:51;3.93;;;3.33;;
1719;SDS011;857;52.872;9.692;2023-07-13T01:21:20;3.83;;;3.53;;
1719;SDS011;857;52.872;9.692;2023-07-13T01:23:48;4.57;;;3.80;;
1719;SDS011;857;52.872;9.692;2023-07-13T01:26:16;4.80;;;3.60;;
1719;SDS011;857;52.872;9.692;2023-07-13T01:28:44;5.33;;;3.63;;
1719;SDS011;857;52.872;9.692;2023-07-13T01:31:12;6.63;;;3.50;;
1719;SDS011;857;52.872;9.692;2023-07-13T01:33:39;5.57;;;4.33;;
1719;SDS011;857;52.872;9.692;2023-07-13T01:36:08;4.37;;;3.97;;
1719;SDS011;857;52.872;9.692;2023-07-13T01:38:38;4.97;;;4.47;;
1719;SDS011;857;52.872;9.692;2023-07-13T01:41:07;4.10;;;3.77;;
1719;SDS011;857;52.872;9.692;2023-07-13T01:43:34;4.00;;;3.60;;
1719;SDS011;857;52.872;9.692;2023-07-13T01:46:02;4.90;;;4.23;;
1719;SDS011;857;52.872;9.692;2023-07-13T01:48:30;4.40;;;4.00;;
1719;SDS011;857;52.872;9.692;2023-07-13T01:50:57;4.50;;;3.63;;
1719;SDS011;857;52.872;9.692;2023-07-13T01:53:25;4.47;;;4.07;;
1719;SDS011;857;52.872;9.692;2023-07-13T01:55:54;6.40;;;3.87;;
1719;SDS011;857;52.872;9.692;2023-07-13T01:58:22;4.90;;;4.50;;
1719;SDS011;857;52.872;9.692;2023-07-13T02:00:50;5.40;;;3.97;;
1719;SDS011;857;52.872;9.692;2023-07-13T02:03:19;3.80;;;3.50;;
1719;SDS011;857;52.872;9.692;2023-07-13T02:05:47;5.07;;;4.43;;
1719;SDS011;857;52.872;9.692;2023-07-13T02:08:15;5.27;;;4.70;;
1719;SDS011;857;52.872;9.692;2023-07-13T02:10:42;5.70;;;3.90;;
1719;SDS011;857;52.872;9.692;2023-07-13T02:13:11;4.20;;;3.70;;
1719;SDS011;857;52.872;9.692;2023-07-13T02:15:39;5.07;;;4.23;;
1719;SDS011;857;52.872;9.692;2023-07-13T02:18:07;4.40;;;4.10;;
1719;SDS011;857;52.872;9.692;2023-07-13T02:20:35;6.10;;;4.00;;
1719;SDS011;857;52.872;9.692;2023-07-13T02:23:02;5.50;;;4.80;;
1719;SDS011;857;52.872;9.692;2023-07-13T02:25:30;5.20;;;4.17;;
1719;SDS011;857;52.872;9.692;2023-07-13T02:27:58;4.40;;;4.00;;
1719;SDS011;857;52.872;9.692;2023-07-13T02:30:27;4.30;;;3.90;;
1719;SDS011;857;52.872;9.692;2023-07-13T02:32:55;5.03;;;4.53;;
1719;SDS011;857;52.872;9.692;2023-07-13T02:35:23;4.20;;;3.80;;
1719;SDS011;857;52.872;9.692;2023-07-13T02:37:51;4.80;;;4.33;;
1719;SDS011;857;52.872;9.692;2023-07-13T02:40:19;5.20;;;4.23;;
1719;SDS011;857;52.872;9.692;2023-07-13T02:42:47;5.97;;;4.10;;
1719;SDS011;857;52.872;9.692;2023-07-13T02:45:14;4.93;;;4.43;;
1719;SDS011;857;52.872;9.692;2023-07-13T02:47:44;5.10;;;4.40;;
1719;SDS011;857;52.872;9.692;2023-07-13T02:50:11;5.00;;;4.50;;
1719;SDS011;857;52.872;9.692;2023-07-13T02:52:39;6.33;;;5.33;;
1719;SDS011;857;52.872;9.692;2023-07-13T02:55:07;6.47;;;4.90;;
1719;SDS011;857;52.872;9.692;2023-07-13T02:57:36;4.73;;;4.33;;
1719;SDS011;857;52.872;9.692;2023-07-13T03:00:05;5.00;;;4.60;;
1719;SDS011;857;52.872;9.692;2023-07-13T03:02:33;4.47;;;4.07;;
1719;SDS011;857;52.872;9.692;2023-07-13T03:05:03;4.80;;;4.40;;
1719;SDS011;857;52.872;9.692;2023-07-13T03:07:31;4.83;;;4.43;;
1719;SDS011;857;52.872;9.692;2023-07-13T03:09:59;5.13;;;4.70;;
1719;SDS011;857;52.872;9.692;2023-07-13T03:12:37;5.03;;;4.53;;
1719;SDS011;857;52.872;9.692;2023-07-13T03:15:09;5.47;;;4.37;;
1719;SDS011;857;52.872;9.692;2023-07-13T03:17:40;3.40;;;3.10;;
1719;SDS011;857;52.872;9.692;2023-07-13T03:20:10;5.23;;;4.30;;
1719;SDS011;857;52.872;9.692;2023-07-13T03:22:38;2.90;;;2.60;;
1719;SDS011;857;52.872;9.692;2023-07-13T03:25:06;5.90;;;5.03;;
1719;SDS011;857;52.872;9.692;2023-07-13T03:27:35;8.57;;;5.30;;
1719;SDS011;857;52.872;9.692;2023-07-13T03:30:04;5.70;;;5.10;;
1719;SDS011;857;52.872;9.692;2023-07-13T03:32:32;5.90;;;5.33;;
1719;SDS011;857;52.872;9.692;2023-07-13T03:34:59;4.47;;;3.00;;
1719;SDS011;857;52.872;9.692;2023-07-13T03:37:31;7.23;;;6.17;;
1719;SDS011;857;52.872;9.692;2023-07-13T03:39:59;7.60;;;5.83;;
1719;SDS011;857;52.872;9.692;2023-07-13T03:42:29;7.03;;;5.40;;
1719;SDS011;857;52.872;9.692;2023-07-13T03:44:57;4.63;;;3.97;;
1719;SDS011;857;52.872;9.692;2023-07-13T03:47:25;5.60;;;5.00;;
1719;SDS011;857;52.872;9.692;2023-07-13T03:49:54;5.73;;;4.93;;
1719;SDS011;857;52.872;9.692;2023-07-13T03:52:21;8.73;;;5.20;;
1719;SDS011;857;52.872;9.692;2023-07-13T03:57:53;7.97;;;5.33;;
1719;SDS011;857;52.872;9.692;2023-07-13T04:00:21;5.60;;;4.73;;
1719;SDS011;857;52.872;9.692;2023-07-13T04:02:53;7.33;;;4.43;;
1719;SDS011;857;52.872;9.692;2023-07-13T04:05:20;5.83;;;5.13;;
1719;SDS011;857;52.872;9.692;2023-07-13T04:07:48;5.30;;;4.70;;
1719;SDS011;857;52.872;9.692;2023-07-13T04:10:16;4.60;;;4.20;;
1719;SDS011;857;52.872;9.692;2023-07-13T04:12:45;5.70;;;4.80;;
1719;SDS011;857;52.872;9.692;2023-07-13T04:15:14;4.93;;;4.33;;
1719;SDS011;857;52.872;9.692;2023-07-13T04:17:41;4.70;;;4.30;;
1719;SDS011;857;52.872;9.692;2023-07-13T04:20:09;6.03;;;4.43;;
1719;SDS011;857;52.872;9.692;2023-07-13T04:22:37;4.80;;;4.10;;
1719;SDS011;857;52.872;9.692;2023-07-13T04:25:05;5.63;;;4.53;;
1719;SDS011;857;52.872;9.692;2023-07-13T04:27:33;5.50;;;4.27;;
1719;SDS011;857;52.872;9.692;2023-07-13T04:30:01;4.00;;;3.60;;
1719;SDS011;857;52.872;9.692;2023-07-13T04:32:30;6.90;;;4.57;;
1719;SDS011;857;52.872;9.692;2023-07-13T04:34:58;5.30;;;3.60;;
1719;SDS011;857;52.872;9.692;2023-07-13T04:37:26;5.10;;;3.70;;
1719;SDS011;857;52.872;9.692;2023-07-13T04:39:54;8.60;;;4.17;;
1719;SDS011;857;52.872;9.692;2023-07-13T04:42:22;7.33;;;4.47;;
1719;SDS011;857;52.872;9.692;2023-07-13T04:44:50;6.30;;;4.00;;
1719;SDS011;857;52.872;9.692;2023-07-13T04:47:18;9.37;;;4.13;;
1719;SDS011;857;52.872;9.692;2023-07-13T04:49:47;4.50;;;3.47;;
1719;SDS011;857;52.872;9.692;2023-07-13T04:52:15;4.60;;;3.47;;
1719;SDS011;857;52.872;9.692;2023-07-13T04:54:43;4.80;;;3.67;;
1719;SDS011;857;52.872;9.692;2023-07-13T04:57:10;9.10;;;3.90;;
1719;SDS011;857;52.872;9.692;2023-07-13T04:59:38;6.03;;;3.93;;
1719;SDS011;857;52.872;9.692;2023-07-13T05:02:06;10.07;;;4.87;;
1719;SDS011;857;52.872;9.692;2023-07-13T05:04:34;5.90;;;3.37;;
1719;SDS011;857;52.872;9.692;2023-07-13T05:07:03;5.20;;;3.30;;
1719;SDS011;857;52.872;9.692;2023-07-13T05:09:31;4.03;;;2.63;;
1719;SDS011;857;52.872;9.692;2023-07-13T05:11:59;4.73;;;2.93;;
1719;SDS011;857;52.872;9.692;2023-07-13T05:14:27;5.00;;;3.03;;
1719;SDS011;857;52.872;9.692;2023-07-13T05:16:54;3.60;;;2.97;;
1719;SDS011;857;52.872;9.692;2023-07-13T05:19:22;4.50;;;2.87;;
1719;SDS011;857;52.872;9.692;2023-07-13T05:21:50;5.37;;;2.70;;
1719;SDS011;857;52.872;9.692;2023-07-13T05:24:19;5.20;;;3.30;;
1719;SDS011;857;52.872;9.692;2023-07-13T05:26:47;3.97;;;2.47;;
1719;SDS011;857;52.872;9.692;2023-07-13T05:29:15;5.23;;;2.50;;
1719;SDS011;857;52.872;9.692;2023-07-13T05:31:42;5.57;;;2.97;;
1719;SDS011;857;52.872;9.692;2023-07-13T05:34:10;4.93;;;2.50;;
1719;SDS011;857;52.872;9.692;2023-07-13T05:36:38;4.00;;;2.57;;
1719;SDS011;857;52.872;9.692;2023-07-13T05:39:06;3.60;;;2.93;;
1719;SDS011;857;52.872;9.692;2023-07-13T05:41:35;4.07;;;2.40;;
1719;SDS011;857;52.872;9.692;2023-07-13T05:44:03;8.20;;;2.90;;
1719;SDS011;857;52.872;9.692;2023-07-13T05:46:30;4.53;;;3.00;;
1719;SDS011;857;52.872;9.692;2023-07-13T05:48:58;4.03;;;3.03;;
1719;SDS011;857;52.872;9.692;2023-07-13T05:51:26;4.10;;;3.20;;
1719;SDS011;857;52.872;9.692;2023-07-13T05:53:54;4.47;;;3.10;;
1719;SDS011;857;52.872;9.692;2023-07-13T05:56:21;4.90;;;3.13;;
1719;SDS011;857;52.872;9.692;2023-07-13T05:58:52;5.50;;;2.80;;
1719;SDS011;857;52.872;9.692;2023-07-13T06:01:19;3.80;;;2.70;;
1719;SDS011;857;52.872;9.692;2023-07-13T06:03:49;3.40;;;2.50;;
1719;SDS011;857;52.872;9.692;2023-07-13T06:06:17;5.60;;;3.50;;
1719;SDS011;857;52.872;9.692;2023-07-13T06:08:44;4.10;;;2.93;;
1719;SDS011;857;52.872;9.692;2023-07-13T06:11:13;5.53;;;3.10;;
1719;SDS011;857;52.872;9.692;2023-07-13T06:13:41;4.97;;;3.23;;
1719;SDS011;857;52.872;9.692;2023-07-13T06:16:11;9.27;;;2.80;;
1719;SDS011;857;52.872;9.692;2023-07-13T06:18:39;7.47;;;2.80;;
1719;SDS011;857;52.872;9.692;2023-07-13T06:21:07;3.80;;;2.80;;
1719;SDS011;857;52.872;9.692;2023-07-13T06:23:37;2.90;;;2.53;;
1719;SDS011;857;52.872;9.692;2023-07-13T06:26:05;4.10;;;2.40;;
1719;SDS011;857;52.872;9.692;2023-07-13T06:32:00;5.70;;;3.00;;
1719;SDS011;857;52.872;9.692;2023-07-13T06:34:28;7.03;;;2.67;;
1719;SDS011;857;52.872;9.692;2023-07-13T06:36:55;5.10;;;3.47;;
1719;SDS011;857;52.872;9.692;2023-07-13T06:39:23;8.40;;;2.60;;
1719;SDS011;857;52.872;9.692;2023-07-13T06:41:51;3.50;;;2.70;;
1719;SDS011;857;52.872;9.692;2023-07-13T06:44:18;4.23;;;3.53;;
1719;SDS011;857;52.872;9.692;2023-07-13T06:46:46;5.10;;;2.50;;
1719;SDS011;857;52.872;9.692;2023-07-13T06:49:15;4.53;;;2.73;;
1719;SDS011;857;52.872;9.692;2023-07-13T06:51:43;5.27;;;3.30;;
1719;SDS011;857;52.872;9.692;2023-07-13T06:54:10;4.00;;;2.60;;
1719;SDS011;857;52.872;9.692;2023-07-13T06:56:38;3.93;;;2.50;;
1719;SDS011;857;52.872;9.692;2023-07-13T06:59:06;5.67;;;2.63;;
1719;SDS011;857;52.872;9.692;2023-07-13T07:01:34;5.23;;;2.43;;
1719;SDS011;857;52.872;9.692;2023-07-13T07:04:02;6.30;;;3.17;;
1719;SDS011;857;52.872;9.692;2023-07-13T07:06:32;4.13;;;2.93;;
1719;SDS011;857;52.872;9.692;2023-07-13T07:08:59;4.80;;;2.43;;
1719;SDS011;857;52.872;9.692;2023-07-13T07:11:27;9.50;;;3.07;;
1719;SDS011;857;52.872;9.692;2023-07-13T07:13:55;6.07;;;2.40;;
1719;SDS011;857;52.872;9.692;2023-07-13T07:16:24;5.77;;;2.70;;
1719;SDS011;857;52.872;9.692;2023-07-13T07:18:54;8.10;;;2.83;;
1719;SDS011;857;52.872;9.692;2023-07-13T07:21:42;5.93;;;3.20;;
1719;SDS011;857;52.872;9.692;2023-07-13T07:24:10;2.30;;;2.03;;
1719;SDS011;857;52.872;9.692;2023-07-13T07:26:37;4.93;;;3.03;;
1719;SDS011;857;52.872;9.692;2023-07-13T07:29:05;3.40;;;2.60;;
1719;SDS011;857;52.872;9.692;2023-07-13T07:31:33;7.60;;;2.80;;
1719;SDS011;857;52.872;9.692;2023-07-13T07:34:02;3.87;;;2.83;;
1719;SDS011;857;52.872;9.692;2023-07-13T07:36:30;2.13;;;1.93;;
1719;SDS011;857;52.872;9.692;2023-07-13T07:38:59;4.03;;;2.53;;
1719;SDS011;857;52.872;9.692;2023-07-13T07:41:27;6.83;;;2.90;;
1719;SDS011;857;52.872;9.692;2023-07-13T07:43:55;4.80;;;3.00;;
1719;SDS011;857;52.872;9.692;2023-07-13T07:46:22;7.80;;;3.00;;
1719;SDS011;857;52.872;9.692;2023-07-13T07:48:50;4.20;;;2.90;;
1719;SDS011;857;52.872;9.692;2023-07-13T07:51:18;5.00;;;3.17;;
1719;SDS011;857;52.872;9.692;2023-07-13T07:53:45;4.80;;;2.63;;
1719;SDS011;857;52.872;9.692;2023-07-13T07:56:15;3.90;;;2.47;;
1719;SDS011;857;52.872;9.692;2023-07-13T07:58:42;3.30;;;2.47;;
1719;SDS011;857;52.872;9.692;2023-07-13T08:01:10;3.83;;;2.33;;
1719;SDS011;857;52.872;9.692;2023-07-13T08:03:38;6.37;;;2.97;;
1719;SDS011;857;52.872;9.692;2023-07-13T08:06:06;4.83;;;2.90;;
1719;SDS011;857;52.872;9.692;2023-07-13T08:08:34;6.70;;;3.43;;
1719;SDS011;857;52.872;9.692;2023-07-13T08:11:02;6.90;;;2.40;;
1719;SDS011;857;52.872;9.692;2023-07-13T08:13:31;6.27;;;3.03;;
1719;SDS011;857;52.872;9.692;2023-07-13T08:15:59;3.90;;;2.40;;
1719;SDS011;857;52.872;9.692;2023-07-13T08:18:27;3.33;;;2.00;;
1719;SDS011;857;52.872;9.692;2023-07-13T08:20:55;5.20;;;3.03;;
1719;SDS011;857;52.872;9.692;2023-07-13T08:23:24;3.63;;;2.77;;
1719;SDS011;857;52.872;9.692;2023-07-13T08:25:52;4.17;;;2.47;;
1719;SDS011;857;52.872;9.692;2023-07-13T08:28:20;6.97;;;2.80;;
1719;SDS011;857;52.872;9.692;2023-07-13T08:30:49;6.30;;;3.03;;
1719;SDS011;857;52.872;9.692;2023-07-13T08:33:17;4.80;;;3.10;;
1719;SDS011;857;52.872;9.692;2023-07-13T08:35:45;9.53;;;2.67;;
1719;SDS011;857;52.872;9.692;2023-07-13T08:38:13;6.53;;;3.13;;
1719;SDS011;857;52.872;9.692;2023-07-13T08:40:41;2.07;;;1.87;;
1719;SDS011;857;52.872;9.692;2023-07-13T08:43:12;4.67;;;3.20;;
1719;SDS011;857;52.872;9.692;2023-07-13T08:45:42;4.30;;;2.60;;
1719;SDS011;857;52.872;9.692;2023-07-13T08:48:13;3.17;;;2.70;;
1719;SDS011;857;52.872;9.692;2023-07-13T08:50:42;7.30;;;2.73;;
1719;SDS011;857;52.872;9.692;2023-07-13T08:53:13;5.93;;;2.60;;
1719;SDS011;857;52.872;9.692;2023-07-13T08:55:41;3.20;;;2.17;;
1719;SDS011;857;52.872;9.692;2023-07-13T08:58:11;5.30;;;2.70;;
1719;SDS011;857;52.872;9.692;2023-07-13T09:00:41;5.90;;;2.73;;
1719;SDS011;857;52.872;9.692;2023-07-13T09:03:15;3.63;;;2.00;;
1719;SDS011;857;52.872;9.692;2023-07-13T09:05:47;2.80;;;2.23;;
1719;SDS011;857;52.872;9.692;2023-07-13T09:08:24;4.97;;;3.10;;
1719;SDS011;857;52.872;9.692;2023-07-13T09:10:57;4.50;;;2.70;;
1719;SDS011;857;52.872;9.692;2023-07-13T09:13:28;4.60;;;2.40;;
1719;SDS011;857;52.872;9.692;2023-07-13T09:15:59;5.37;;;2.30;;
1719;SDS011;857;52.872;9.692;2023-07-13T09:18:30;3.90;;;2.67;;
1719;SDS011;857;52.872;9.692;2023-07-13T09:21:02;6.00;;;2.40;;
1719;SDS011;857;52.872;9.692;2023-07-13T09:23:31;3.53;;;2.80;;
1719;SDS011;857;52.872;9.692;2023-07-13T09:26:00;4.07;;;2.17;;
1719;SDS011;857;52.872;9.692;2023-07-13T09:28:29;2.87;;;2.03;;
1719;SDS011;857;52.872;9.692;2023-07-13T09:31:01;4.60;;;2.10;;
1719;SDS011;857;52.872;9.692;2023-07-13T09:33:32;2.97;;;2.10;;
1719;SDS011;857;52.872;9.692;2023-07-13T09:36:05;3.67;;;2.67;;
1719;SDS011;857;52.872;9.692;2023-07-13T09:38:41;2.33;;;1.90;;
1719;SDS011;857;52.872;9.692;2023-07-13T09:41:14;3.20;;;2.40;;
1719;SDS011;857;52.872;9.692;2023-07-13T09:46:25;4.67;;;2.67;;
1719;SDS011;857;52.872;9.692;2023-07-13T09:48:54;5.00;;;2.40;;
1719;SDS011;857;52.872;9.692;2023-07-13T09:51:23;3.40;;;2.70;;
1719;SDS011;857;52.872;9.692;2023-07-13T09:53:51;3.70;;;2.30;;
1719;SDS011;857;52.872;9.692;2023-07-13T09:56:20;2.60;;;2.13;;
1719;SDS011;857;52.872;9.692;2023-07-13T09:58:48;3.47;;;2.30;;
1719;SDS011;857;52.872;9.692;2023-07-13T10:01:16;3.80;;;2.03;;
1719;SDS011;857;52.872;9.692;2023-07-13T10:03:59;2.93;;;2.40;;
1719;SDS011;857;52.872;9.692;2023-07-13T10:06:27;4.00;;;2.60;;
1719;SDS011;857;52.872;9.692;2023-07-13T10:08:55;6.20;;;2.63;;
1719;SDS011;857;52.872;9.692;2023-07-13T10:11:26;6.10;;;3.13;;
1719;SDS011;857;52.872;9.692;2023-07-13T10:13:56;4.43;;;2.93;;
1719;SDS011;857;52.872;9.692;2023-07-13T10:16:25;3.33;;;2.67;;
1719;SDS011;857;52.872;9.692;2023-07-13T10:19:00;2.50;;;1.73;;
1719;SDS011;857;52.872;9.692;2023-07-13T10:21:30;4.63;;;2.53;;
1719;SDS011;857;52.872;9.692;2023-07-13T10:24:00;5.17;;;3.07;;
1719;SDS011;857;52.872;9.692;2023-07-13T10:26:32;3.80;;;3.20;;
1719;SDS011;857;52.872;9.692;2023-07-13T10:29:01;5.67;;;2.70;;
1719;SDS011;857;52.872;9.692;2023-07-13T10:31:31;4.63;;;3.10;;
1719;SDS011;857;52.872;9.692;2023-07-13T10:34:00;3.10;;;2.73;;
1719;SDS011;857;52.872;9.692;2023-07-13T10:36:29;2.67;;;2.47;;
1719;SDS011;857;52.872;9.692;2023-07-13T10:38:59;1.70;;;1.60;;
1719;SDS011;857;52.872;9.692;2023-07-13T10:41:29;1.97;;;1.73;;
1719;SDS011;857;52.872;9.692;2023-07-13T10:43:57;2.33;;;2.13;;
1719;SDS011;857;52.872;9.692;2023-07-13T10:46:26;3.30;;;3.00;;
1719;SDS011;857;52.872;9.692;2023-07-13T10:48:55;3.63;;;2.80;;
1719;SDS011;857;52.872;9.692;2023-07-13T10:51:26;4.00;;;3.10;;
1719;SDS011;857;52.872;9.692;2023-07-13T10:54:11;3.20;;;2.77;;
1719;SDS011;857;52.872;9.692;2023-07-13T10:56:41;2.83;;;2.40;;
1719;SDS011;857;52.872;9.692;2023-07-13T10:59:11;3.47;;;2.90;;
1719;SDS011;857;52.872;9.692;2023-07-13T11:01:41;5.90;;;2.60;;
1719;SDS011;857;52.872;9.692;2023-07-13T11:04:13;2.97;;;2.77;;
1719;SDS011;857;52.872;9.692;2023-07-13T11:06:43;3.37;;;2.43;;
1719;SDS011;857;52.872;9.692;2023-07-13T11:09:18;3.10;;;2.80;;
1719;SDS011;857;52.872;9.692;2023-07-13T11:11:46;3.43;;;3.13;;
1719;SDS011;857;52.872;9.692;2023-07-13T11:17:05;2.60;;;2.40;;
1719;SDS011;857;52.872;9.692;2023-07-13T11:19:52;4.10;;;2.50;;
1719;SDS011;857;52.872;9.692;2023-07-13T11:22:25;3.60;;;2.40;;
1719;SDS011;857;52.872;9.692;2023-07-13T11:25:20;2.23;;;2.03;;
1719;SDS011;857;52.872;9.692;2023-07-13T11:27:50;4.53;;;2.67;;
1719;SDS011;857;52.872;9.692;2023-07-13T11:30:23;2.17;;;1.97;;
1719;SDS011;857;52.872;9.692;2023-07-13T11:32:52;2.67;;;2.30;;
1719;SDS011;857;52.872;9.692;2023-07-13T11:35:33;3.17;;;2.60;;
1719;SDS011;857;52.872;9.692;2023-07-13T11:38:10;4.23;;;2.63;;
1719;SDS011;857;52.872;9.692;2023-07-13T11:40:40;3.87;;;2.63;;
1719;SDS011;857;52.872;9.692;2023-07-13T11:43:11;2.87;;;2.20;;
1719;SDS011;857;52.872;9.692;2023-07-13T11:45:40;2.30;;;2.10;;
1719;SDS011;857;52.872;9.692;2023-07-13T11:48:17;3.00;;;2.60;;
1719;SDS011;857;52.872;9.692;2023-07-13T11:50:51;3.23;;;2.30;;
1719;SDS011;857;52.872;9.692;2023-07-13T11:53:20;2.50;;;2.30;;
1719;SDS011;857;52.872;9.692;2023-07-13T11:55:48;2.73;;;2.53;;
1719;SDS011;857;52.872;9.692;2023-07-13T11:58:17;2.43;;;2.23;;
1719;SDS011;857;52.872;9.692;2023-07-13T12:00:46;3.20;;;3.00;;
1719;SDS011;857;52.872;9.692;2023-07-13T12:03:14;2.40;;;2.20;;
1719;SDS011;857;52.872;9.692;2023-07-13T12:05:54;2.97;;;2.67;;
1719;SDS011;857;52.872;9.692;2023-07-13T12:08:24;2.90;;;2.43;;
1719;SDS011;857;52.872;9.692;2023-07-13T12:10:59;2.97;;;2.33;;
1719;SDS011;857;52.872;9.692;2023-07-13T12:13:34;2.57;;;2.40;;
1719;SDS011;857;52.872;9.692;2023-07-13T12:16:02;3.43;;;2.13;;
1719;SDS011;857;52.872;9.692;2023-07-13T12:18:36;4.20;;;2.30;;
1719;SDS011;857;52.872;9.692;2023-07-13T12:21:04;3.53;;;2.30;;
1719;SDS011;857;52.872;9.692;2023-07-13T12:23:34;2.77;;;2.50;;
1719;SDS011;857;52.872;9.692;2023-07-13T12:26:03;2.13;;;1.93;;
1719;SDS011;857;52.872;9.692;2023-07-13T12:28:32;2.23;;;2.03;;
1719;SDS011;857;52.872;9.692;2023-07-13T12:31:01;2.37;;;1.80;;
1719;SDS011;857;52.872;9.692;2023-07-13T12:33:29;1.73;;;1.40;;
1719;SDS011;857;52.872;9.692;2023-07-13T12:35:59;2.13;;;1.60;;
1719;SDS011;857;52.872;9.692;2023-07-13T12:38:29;2.20;;;1.77;;
1719;SDS011;857;52.872;9.692;2023-07-13T12:40:58;1.53;;;1.43;;
1719;SDS011;857;52.872;9.692;2023-07-13T12:43:28;2.37;;;1.90;;
1719;SDS011;857;52.872;9.692;2023-07-13T12:46:01;4.10;;;2.10;;
1719;SDS011;857;52.872;9.692;2023-07-13T12:48:29;2.60;;;1.83;;
1719;SDS011;857;52.872;9.692;2023-07-13T12:51:00;2.80;;;1.90;;
1719;SDS011;857;52.872;9.692;2023-07-13T12:53:29;1.80;;;1.70;;
1719;SDS011;857;52.872;9.692;2023-07-13T12:55:59;1.63;;;1.53;;
1719;SDS011;857;52.872;9.692;2023-07-13T12:58:36;1.80;;;1.70;;
1719;SDS011;857;52.872;9.692;2023-07-13T13:01:04;1.90;;;1.80;;
1719;SDS011;857;52.872;9.692;2023-07-13T13:03:33;1.60;;;1.50;;
1719;SDS011;857;52.872;9.692;2023-07-13T13:06:02;2.40;;;1.60;;
1719;SDS011;857;52.872;9.692;2023-07-13T13:08:30;3.20;;;1.73;;
1719;SDS011;857;52.872;9.692;2023-07-13T13:11:00;2.57;;;2.00;;
1719;SDS011;857;52.872;9.692;2023-07-13T13:13:28;1.97;;;1.77;;
1719;SDS011;857;52.872;9.692;2023-07-13T13:15:55;1.83;;;1.53;;
1719;SDS011;857;52.872;9.692;2023-07-13T13:18:24;1.73;;;1.60;;
1719;SDS011;857;52.872;9.692;2023-07-13T13:20:52;2.27;;;1.70;;
1719;SDS011;857;52.872;9.692;2023-07-13T13:23:20;2.80;;;2.00;;
1719;SDS011;857;52.872;9.692;2023-07-13T13:25:49;2.83;;;1.70;;
1719;SDS011;857;52.872;9.692;2023-07-13T13:28:19;2.03;;;1.50;;
1719;SDS011;857;52.872;9.692;2023-07-13T13:30:49;1.30;;;1.20;;
1719;SDS011;857;52.872;9.692;2023-07-13T13:33:17;1.37;;;1.27;;
1719;SDS011;857;52.872;9.692;2023-07-13T13:35:45;1.63;;;1.53;;
1719;SDS011;857;52.872;9.692;2023-07-13T13:38:14;1.40;;;1.30;;
1719;SDS011;857;52.872;9.692;2023-07-13T13:40:42;2.70;;;1.47;;
1719;SDS011;857;52.872;9.692;2023-07-13T13:43:14;1.20;;;1.10;;
1719;SDS011;857;52.872;9.692;2023-07-13T13:45:44;1.40;;;1.30;;
1719;SDS011;857;52.872;9.692;2023-07-13T13:48:16;1.13;;;0.97;;
1719;SDS011;857;52.872;9.692;2023-07-13T13:50:45;2.33;;;1.57;;
1719;SDS011;857;52.872;9.692;2023-07-13T13:53:12;1.10;;;0.87;;
1719;SDS011;857;52.872;9.692;2023-07-13T13:55:40;1.03;;;0.90;;
1719;SDS011;857;52.872;9.692;2023-07-13T13:58:09;2.00;;;0.90;;
1719;SDS011;857;52.872;9.692;2023-07-13T14:00:37;1.30;;;1.20;;
1719;SDS011;857;52.872;9.692;2023-07-13T14:03:08;1.40;;;1.17;;
1719;SDS011;857;52.872;9.692;2023-07-13T14:05:41;0.87;;;0.87;;
1719;SDS011;857;52.872;9.692;2023-07-13T14:08:11;1.17;;;0.80;;
1719;SDS011;857;52.872;9.692;2023-07-13T14:10:40;2.03;;;1.03;;
1719;SDS011;857;52.872;9.692;2023-07-13T14:13:11;0.93;;;0.83;;
1719;SDS011;857;52.872;9.692;2023-07-13T14:15:44;1.47;;;1.07;;
1719;SDS011;857;52.872;9.692;2023-07-13T14:18:13;1.60;;;1.13;;
1719;SDS011;857;52.872;9.692;2023-07-13T14:20:43;1.23;;;1.00;;
1719;SDS011;857;52.872;9.692;2023-07-13T14:23:12;1.50;;;1.00;;
1719;SDS011;857;52.872;9.692;2023-07-13T14:25:39;1.53;;;1.37;;
1719;SDS011;857;52.872;9.692;2023-07-13T14:28:13;1.07;;;0.90;;
1719;SDS011;857;52.872;9.692;2023-07-13T14:30:42;0.70;;;0.70;;
1719;SDS011;857;52.872;9.692;2023-07-13T14:33:11;1.40;;;1.00;;
1719;SDS011;857;52.872;9.692;2023-07-13T14:35:40;2.53;;;0.70;;
1719;SDS011;857;52.872;9.692;2023-07-13T14:38:08;1.60;;;1.50;;
1719;SDS011;857;52.872;9.692;2023-07-13T14:40:37;1.67;;;1.10;;
1719;SDS011;857;52.872;9.692;2023-07-13T14:43:07;1.40;;;1.00;;
1719;SDS011;857;52.872;9.692;2023-07-13T14:45:36;1.40;;;1.20;;
1719;SDS011;857;52.872;9.692;2023-07-13T14:48:09;1.10;;;1.00;;
1719;SDS011;857;52.872;9.692;2023-07-13T14:50:37;1.10;;;1.00;;
1719;SDS011;857;52.872;9.692;2023-07-13T14:53:08;0.97;;;0.90;;
1719;SDS011;857;52.872;9.692;2023-07-13T14:55:36;1.63;;;1.53;;
1719;SDS011;857;52.872;9.692;2023-07-13T14:58:04;2.50;;;1.50;;
1719;SDS011;857;52.872;9.692;2023-07-13T15:00:32;1.80;;;1.70;;
1719;SDS011;857;52.872;9.692;2023-07-13T15:03:00;1.57;;;1.47;;
1719;SDS011;857;52.872;9.692;2023-07-13T15:05:29;1.77;;;1.30;;
1719;SDS011;857;52.872;9.692;2023-07-13T15:07:57;3.83;;;1.80;;
1719;SDS011;857;52.872;9.692;2023-07-13T15:10:27;1.60;;;1.50;;
1719;SDS011;857;52.872;9.692;2023-07-13T15:12:58;1.30;;;1.20;;
1719;SDS011;857;52.872;9.692;2023-07-13T15:15:26;1.33;;;1.23;;
1719;SDS011;857;52.872;9.692;2023-07-13T15:17:54;1.60;;;1.40;;
1719;SDS011;857;52.872;9.692;2023-07-13T15:20:24;1.60;;;1.50;;
1719;SDS011;857;52.872;9.692;2023-07-13T15:22:53;2.53;;;1.47;;
1719;SDS011;857;52.872;9.692;2023-07-13T15:25:21;2.00;;;1.60;;
1719;SDS011;857;52.872;9.692;2023-07-13T15:27:51;2.47;;;1.67;;
1719;SDS011;857;52.872;9.692;2023-07-13T15:30:19;1.77;;;1.40;;
1719;SDS011;857;52.872;9.692;2023-07-13T15:32:47;2.37;;;1.70;;
1719;SDS011;857;52.872;9.692;2023-07-13T15:35:16;2.23;;;2.03;;
1719;SDS011;857;52.872;9.692;2023-07-13T15:37:44;2.87;;;1.60;;
1719;SDS011;857;52.872;9.692;2023-07-13T15:40:12;1.87;;;1.77;;
1719;SDS011;857;52.872;9.692;2023-07-13T15:42:40;1.50;;;1.40;;
1719;SDS011;857;52.872;9.692;2023-07-13T15:45:18;2.23;;;1.80;;
1719;SDS011;857;52.872;9.692;2023-07-13T15:47:46;1.70;;;1.60;;
1719;SDS011;857;52.872;9.692;2023-07-13T15:50:14;2.30;;;1.80;;
1719;SDS011;857;52.872;9.692;2023-07-13T15:52:43;2.00;;;1.80;;
1719;SDS011;857;52.872;9.692;2023-07-13T15:55:12;2.00;;;1.40;;